createdAt,value
2023-02-26T00:02:13.608Z,84.40
2023-02-26T00:05:21.653Z,85.81
2023-02-26T00:08:31.596Z,85.58
2023-02-26T00:11:40.212Z,85.83
2023-02-26T00:14:49.836Z,85.57
2023-02-26T00:18:07.013Z,84.24
2023-02-26T00:21:18.612Z,84.48
2023-02-26T00:24:28.029Z,84.80
2023-02-26T00:27:36.717Z,85.08
2023-02-26T00:30:45.461Z,84.57
2023-02-26T00:33:56.131Z,84.62
2023-02-26T00:37:24.151Z,84.24
2023-02-26T00:40:44.155Z,84.12
2023-02-26T00:43:53.052Z,84.51
2023-02-26T00:47:11.120Z,83.84
2023-02-26T00:50:23.192Z,84.47
2023-02-26T00:53:42.093Z,84.25
2023-02-26T00:56:53.743Z,84.41
2023-02-26T01:00:02.185Z,84.85
2023-02-26T01:03:12.089Z,85.10
2023-02-26T01:06:23.613Z,84.38
2023-02-26T01:09:34.857Z,84.96
2023-02-26T01:12:45.356Z,83.93
2023-02-26T01:16:08.946Z,84.04
2023-02-26T01:19:30.731Z,83.87
2023-02-26T01:22:47.399Z,83.89
2023-02-26T01:26:01.576Z,83.25
2023-02-26T01:29:11.937Z,84.74
2023-02-26T01:32:28.746Z,84.14
2023-02-26T01:35:46.958Z,82.91
2023-02-26T01:39:10.537Z,83.49
2023-02-26T01:42:24.510Z,83.43
2023-02-26T01:45:44.909Z,83.06
2023-02-26T01:48:57.301Z,83.88
2023-02-26T01:52:08.358Z,83.16
2023-02-26T01:55:19.102Z,82.51
2023-02-26T01:58:35.131Z,82.51
2023-02-26T02:01:45.353Z,81.18
2023-02-26T02:04:54.583Z,80.68
2023-02-26T02:08:03.380Z,80.50
2023-02-26T02:11:14.699Z,81.49
2023-02-26T02:14:32.534Z,80.53
2023-02-26T02:17:52.904Z,80.60
2023-02-26T02:21:46.678Z,79.52
2023-02-26T02:25:16.704Z,80.37
2023-02-26T02:28:46.493Z,81.51
2023-02-26T02:32:01.600Z,81.34
2023-02-26T02:35:19.238Z,81.50
2023-02-26T02:38:36.554Z,81.64
2023-02-26T02:41:53.613Z,81.35
2023-02-26T02:45:10.816Z,80.93
2023-02-26T02:48:29.256Z,81.02
2023-02-26T02:51:42.411Z,80.81
2023-02-26T02:54:59.923Z,81.17
2023-02-26T02:58:14.823Z,81.49
2023-02-26T03:01:27.333Z,81.85
2023-02-26T03:04:38.114Z,81.97
2023-02-26T03:07:55.246Z,81.71
2023-02-26T03:11:03.647Z,81.60
2023-02-26T03:14:16.322Z,81.83
2023-02-26T03:17:34.993Z,80.64
2023-02-26T03:20:57.884Z,81.77
2023-02-26T03:24:17.223Z,82.64
2023-02-26T03:27:34.353Z,83.03
2023-02-26T03:30:49.479Z,83.36
2023-02-26T03:34:04.240Z,82.52
2023-02-26T03:37:22.770Z,81.63
2023-02-26T03:40:38.580Z,81.47
2023-02-26T03:43:56.951Z,82.58
2023-02-26T03:47:11.961Z,81.56
2023-02-26T03:50:29.010Z,81.83
2023-02-26T03:54:09.079Z,81.64
2023-02-26T03:57:21.405Z,80.96
2023-02-26T04:00:57.265Z,81.77
2023-02-26T04:04:13.797Z,81.89
2023-02-26T04:07:23.347Z,82.56
2023-02-26T04:10:42.657Z,82.36
2023-02-26T04:13:50.911Z,81.45
2023-02-26T04:17:00.259Z,81.83
2023-02-26T04:20:11.351Z,82.50
2023-02-26T04:23:20.381Z,81.79
2023-02-26T04:26:30.201Z,82.10
2023-02-26T04:29:38.621Z,82.92
2023-02-26T04:32:47.648Z,82.01
2023-02-26T04:35:56.980Z,82.73
2023-02-26T04:39:07.243Z,83.29
2023-02-26T04:42:17.500Z,82.84
2023-02-26T04:45:25.636Z,82.23
2023-02-26T04:48:34.720Z,83.00
2023-02-26T04:51:42.902Z,81.85
2023-02-26T04:54:53.336Z,81.46
2023-02-26T04:58:03.579Z,81.69
2023-02-26T05:01:13.626Z,81.77
2023-02-26T05:04:21.983Z,82.24
2023-02-26T05:07:35.260Z,81.46
2023-02-26T05:10:43.465Z,81.60
2023-02-26T05:13:53.270Z,81.50
2023-02-26T05:17:01.459Z,81.12
2023-02-26T05:20:12.942Z,81.30
2023-02-26T05:23:21.300Z,81.49
2023-02-26T05:26:29.478Z,81.15
2023-02-26T05:29:41.124Z,80.93
2023-02-26T05:32:51.204Z,79.16
2023-02-26T05:35:59.316Z,79.33
2023-02-26T05:39:07.760Z,80.12
2023-02-26T05:42:15.958Z,79.24
2023-02-26T05:45:25.444Z,81.26
2023-02-26T05:48:33.577Z,80.74
2023-02-26T05:51:42.813Z,80.87
2023-02-26T05:54:51.072Z,81.37
2023-02-26T05:57:59.281Z,80.90
2023-02-26T06:01:08.712Z,80.42
2023-02-26T06:04:16.891Z,79.82
2023-02-26T06:07:25.481Z,80.25
2023-02-26T06:10:34.041Z,78.78
2023-02-26T06:13:42.610Z,78.94
2023-02-26T06:16:52.055Z,78.01
2023-02-26T06:20:00.201Z,77.18
2023-02-26T06:23:08.313Z,78.30
2023-02-26T06:26:16.592Z,79.35
2023-02-26T06:29:24.767Z,79.65
2023-02-26T06:32:34.366Z,80.62
2023-02-26T06:35:42.771Z,78.29
2023-02-26T06:38:50.887Z,78.70
2023-02-26T06:41:59.843Z,78.66
2023-02-26T06:45:09.330Z,79.31
2023-02-26T06:48:18.784Z,80.42
2023-02-26T06:51:27.153Z,79.37
2023-02-26T06:54:35.300Z,77.75
2023-02-26T06:57:43.561Z,76.44
2023-02-26T07:00:52.101Z,76.27
2023-02-26T07:04:01.645Z,77.14
2023-02-26T07:07:09.869Z,76.88
2023-02-26T07:10:18.713Z,77.00
2023-02-26T07:13:26.792Z,78.57
2023-02-26T07:16:35.078Z,77.69
2023-02-26T07:19:44.547Z,75.66
2023-02-26T07:22:52.666Z,75.90
2023-02-26T07:26:01.052Z,73.76
2023-02-26T07:29:09.465Z,75.38
2023-02-26T07:32:17.776Z,75.18
2023-02-26T07:35:27.436Z,73.37
2023-02-26T07:38:35.545Z,73.31
2023-02-26T07:41:43.605Z,71.46
2023-02-26T07:44:56.138Z,72.02
2023-02-26T07:48:04.519Z,70.61
2023-02-26T07:51:14.028Z,69.02
2023-02-26T07:54:22.552Z,68.08
2023-02-26T07:57:30.685Z,63.40
2023-02-26T08:00:38.893Z,68.90
2023-02-26T08:03:47.069Z,69.65
2023-02-26T08:06:57.319Z,69.92
2023-02-26T08:10:06.953Z,69.96
2023-02-26T08:13:15.169Z,69.94
2023-02-26T08:16:23.860Z,70.53
2023-02-26T08:19:32.547Z,70.71
2023-02-26T08:22:42.309Z,69.93
2023-02-26T08:25:51.042Z,69.83
2023-02-26T08:28:59.173Z,70.54
2023-02-26T08:32:07.350Z,69.95
2023-02-26T08:35:15.498Z,69.63
2023-02-26T08:38:24.966Z,70.38
2023-02-26T08:41:33.398Z,72.12
2023-02-26T08:44:41.556Z,71.66
2023-02-26T08:47:56.673Z,72.37
2023-02-26T08:51:06.173Z,69.39
2023-02-26T08:54:15.930Z,68.55
2023-02-26T08:57:24.028Z,68.13
2023-02-26T09:00:32.754Z,67.00
2023-02-26T09:03:41.199Z,65.01
2023-02-26T09:06:49.463Z,63.41
2023-02-26T09:09:59.055Z,64.62
2023-02-26T09:13:07.150Z,64.44
2023-02-26T09:16:15.336Z,64.44
2023-02-26T09:19:23.963Z,64.30
2023-02-26T09:22:35.183Z,62.83
2023-02-26T09:25:44.747Z,61.02
2023-02-26T09:28:53.000Z,62.18
2023-02-26T09:32:01.908Z,62.81
2023-02-26T09:35:11.543Z,63.17
2023-02-26T09:38:20.372Z,65.34
2023-02-26T09:41:35.210Z,66.63
2023-02-26T09:44:43.894Z,68.21
2023-02-26T09:47:55.665Z,69.91
2023-02-26T09:51:04.895Z,68.36
2023-02-26T09:54:22.525Z,70.89
2023-02-26T09:57:36.892Z,70.74
2023-02-26T10:00:56.568Z,69.58
2023-02-26T10:04:13.070Z,70.81
2023-02-26T10:07:40.015Z,68.71
2023-02-26T10:10:57.698Z,66.83
2023-02-26T10:14:17.213Z,66.70
2023-02-26T10:17:36.714Z,61.96
2023-02-26T10:20:57.369Z,60.37
2023-02-26T10:24:14.826Z,59.05
2023-02-26T10:27:39.813Z,62.56
2023-02-26T10:31:01.587Z,62.79
2023-02-26T10:34:24.252Z,64.94
2023-02-26T10:37:47.585Z,61.65
2023-02-26T10:41:03.812Z,62.00
2023-02-26T10:44:23.502Z,62.45
2023-02-26T10:47:48.066Z,63.87
2023-02-26T10:51:00.420Z,65.17
2023-02-26T10:54:20.973Z,66.60
2023-02-26T10:57:35.679Z,67.90
2023-02-26T11:00:50.069Z,67.44
2023-02-26T11:04:06.431Z,63.29
2023-02-26T11:07:15.771Z,62.91
2023-02-26T11:10:28.155Z,62.15
2023-02-26T11:13:39.943Z,64.58
2023-02-26T11:16:53.848Z,64.42
2023-02-26T11:20:16.518Z,66.40
2023-02-26T11:23:32.209Z,67.91
2023-02-26T11:26:45.819Z,67.75
2023-02-26T11:29:58.170Z,68.60
2023-02-26T11:33:19.684Z,67.45
2023-02-26T11:36:34.191Z,67.22
2023-02-26T11:39:42.554Z,66.79
2023-02-26T11:42:57.165Z,65.77
2023-02-26T11:46:06.789Z,64.90
2023-02-26T11:49:19.889Z,61.67
2023-02-26T11:52:35.305Z,63.27
2023-02-26T11:55:48.186Z,61.65
2023-02-26T11:58:59.173Z,59.89
2023-02-26T12:02:14.543Z,56.81
2023-02-26T12:05:22.929Z,59.70
2023-02-26T12:08:38.442Z,60.71
2023-02-26T12:12:50.863Z,61.68
2023-02-26T12:16:14.809Z,63.67
2023-02-26T12:19:41.851Z,63.50
2023-02-26T12:23:00.593Z,66.73
2023-02-26T12:26:25.839Z,65.84
2023-02-26T12:30:01.263Z,66.46
2023-02-26T12:33:25.830Z,65.61
2023-02-26T12:36:57.670Z,64.87
2023-02-26T12:40:41.459Z,63.57
2023-02-26T12:43:52.988Z,65.55
2023-02-26T12:47:34.575Z,66.78
2023-02-26T12:51:03.751Z,66.61
2023-02-26T12:55:05.420Z,67.47
2023-02-26T12:58:48.809Z,66.46
2023-02-26T13:03:01.100Z,67.07
2023-02-26T13:07:05.433Z,66.77
2023-02-26T13:10:29.269Z,66.95
2023-02-26T13:13:58.944Z,66.19
2023-02-26T13:17:24.916Z,66.03
2023-02-26T13:20:37.604Z,66.24
2023-02-26T13:23:53.406Z,64.70
2023-02-26T13:27:05.185Z,63.01
2023-02-26T13:30:27.844Z,60.14
2023-02-26T13:33:42.383Z,59.49
2023-02-26T13:36:52.065Z,55.79
2023-02-26T13:40:31.167Z,56.23
2023-02-26T13:44:10.427Z,62.84
2023-02-26T13:47:42.629Z,65.11
2023-02-26T13:51:08.874Z,64.81
2023-02-26T13:54:46.089Z,62.94
2023-02-26T13:57:54.801Z,62.85
2023-02-26T14:01:11.726Z,62.91
2023-02-26T14:04:33.558Z,67.40
2023-02-26T14:07:56.317Z,72.48
2023-02-26T14:11:39.642Z,75.06
2023-02-26T14:15:30.527Z,73.95
2023-02-26T14:18:52.095Z,73.77
2023-02-26T14:22:20.032Z,73.22
2023-02-26T14:25:39.867Z,72.63
2023-02-26T14:29:10.375Z,73.57
2023-02-26T14:32:33.176Z,72.94
2023-02-26T14:35:52.482Z,72.01
2023-02-26T14:39:11.355Z,70.09
2023-02-26T14:42:33.749Z,67.77
2023-02-26T14:45:46.345Z,67.33
2023-02-26T14:48:56.662Z,66.61
2023-02-26T14:52:41.517Z,71.33
2023-02-26T14:56:08.391Z,75.10
2023-02-26T14:59:45.296Z,77.88
2023-02-26T15:03:37.542Z,78.23
2023-02-26T15:07:19.741Z,77.63
2023-02-26T15:10:53.085Z,77.00
2023-02-26T15:14:26.083Z,75.82
2023-02-26T15:17:57.698Z,75.85
2023-02-26T15:21:25.542Z,76.33
2023-02-26T15:24:35.728Z,74.49
2023-02-26T15:27:45.389Z,74.29
2023-02-26T15:31:03.000Z,73.05
2023-02-26T15:34:14.609Z,73.17
2023-02-26T15:37:28.537Z,72.22
2023-02-26T15:40:38.990Z,72.69
2023-02-26T15:43:53.918Z,73.57
2023-02-26T15:47:07.031Z,73.42
2023-02-26T15:50:19.521Z,73.68
2023-02-26T15:53:35.425Z,73.51
2023-02-26T15:56:45.166Z,74.26
2023-02-26T16:00:02.791Z,73.43
2023-02-26T16:03:28.642Z,73.42
2023-02-26T16:06:41.864Z,73.33
2023-02-26T16:09:56.400Z,73.88
2023-02-26T16:13:08.873Z,72.21
2023-02-26T16:16:23.052Z,73.49
2023-02-26T16:19:39.497Z,73.18
2023-02-26T16:22:51.383Z,74.73
2023-02-26T16:26:02.940Z,74.65
2023-02-26T16:29:19.593Z,74.31
2023-02-26T16:32:33.870Z,75.30
2023-02-26T16:35:48.897Z,73.93
2023-02-26T16:39:20.586Z,75.44
2023-02-26T16:42:46.692Z,76.79
2023-02-26T16:46:02.174Z,75.97
2023-02-26T16:49:24.950Z,76.34
2023-02-26T16:52:35.292Z,77.76
2023-02-26T16:55:51.089Z,77.57
2023-02-26T16:59:06.785Z,78.75
2023-02-26T17:02:19.904Z,78.26
2023-02-26T17:05:34.919Z,78.89
2023-02-26T17:08:52.240Z,79.71
2023-02-26T17:12:16.915Z,79.90
2023-02-26T17:15:32.077Z,80.76
2023-02-26T17:18:40.401Z,79.55
2023-02-26T17:21:57.768Z,80.69
2023-02-26T17:25:08.358Z,81.57
2023-02-26T17:28:23.184Z,82.05
2023-02-26T17:31:31.324Z,81.23
2023-02-26T17:34:39.564Z,81.40
2023-02-26T17:37:47.861Z,81.08
2023-02-26T17:40:58.344Z,81.99
2023-02-26T17:44:06.675Z,81.75
2023-02-26T17:47:18.240Z,82.06
2023-02-26T17:50:41.205Z,82.52
2023-02-26T17:53:50.560Z,81.77
2023-02-26T17:57:00.450Z,81.63
2023-02-26T18:00:14.902Z,81.28
2023-02-26T18:03:27.739Z,82.30
2023-02-26T18:06:38.794Z,82.00
2023-02-26T18:09:49.081Z,82.64
2023-02-26T18:12:59.548Z,81.31
2023-02-26T18:16:16.200Z,81.28
2023-02-26T18:19:24.421Z,80.17
2023-02-26T18:22:32.661Z,79.84
2023-02-26T18:25:42.635Z,80.19
2023-02-26T18:28:52.734Z,79.57
2023-02-26T18:35:45.939Z,79.90
2023-02-26T18:38:54.144Z,79.83
2023-02-26T18:42:02.471Z,78.38
2023-02-26T18:45:13.212Z,79.69
2023-02-26T18:48:22.397Z,79.30
2023-02-26T18:51:30.899Z,79.45
2023-02-26T18:54:40.135Z,78.62
2023-02-26T18:57:49.876Z,79.62
2023-02-26T19:01:04.798Z,78.85
2023-02-26T19:04:13.435Z,78.60
2023-02-26T19:07:21.780Z,78.93
2023-02-26T19:10:31.643Z,79.93
2023-02-26T19:13:43.155Z,79.76
2023-02-26T19:16:55.005Z,79.79
2023-02-26T19:20:04.159Z,79.61
2023-02-26T19:23:13.908Z,81.19
2023-02-26T19:26:22.775Z,80.37
2023-02-26T19:29:33.758Z,81.29
2023-02-26T19:32:43.382Z,80.83
2023-02-26T19:35:53.342Z,81.14
2023-02-26T19:39:02.477Z,81.21
2023-02-26T19:42:11.529Z,80.86
2023-02-26T19:45:20.206Z,80.75
2023-02-26T19:48:31.362Z,80.99
2023-02-26T19:51:40.589Z,81.28
2023-02-26T19:54:49.038Z,80.53
2023-02-26T19:57:59.398Z,80.85
2023-02-26T20:01:08.223Z,80.88
2023-02-26T20:04:18.879Z,81.02
2023-02-26T20:07:27.400Z,80.33
2023-02-26T20:10:35.558Z,80.43
2023-02-26T20:13:44.131Z,80.89
2023-02-26T20:16:52.346Z,81.72
2023-02-26T20:20:02.239Z,82.34
2023-02-26T20:23:11.726Z,81.42
2023-02-26T20:26:20.073Z,80.94
2023-02-26T20:29:28.707Z,81.38
2023-02-26T20:32:37.267Z,82.17
2023-02-26T20:35:47.389Z,82.40
2023-02-26T20:38:55.995Z,83.09
2023-02-26T20:42:05.232Z,83.31
2023-02-26T20:45:13.905Z,83.89
2023-02-26T20:48:22.600Z,83.29
2023-02-26T20:51:32.793Z,83.79
2023-02-26T20:54:41.884Z,83.90
2023-02-26T20:57:50.756Z,83.69
2023-02-26T21:00:59.517Z,83.85
2023-02-26T21:04:10.430Z,83.96
2023-02-26T21:07:22.857Z,84.46
2023-02-26T21:10:32.605Z,83.70
2023-02-26T21:13:41.307Z,83.84
2023-02-26T21:16:49.648Z,84.26
2023-02-26T21:19:58.367Z,84.52
2023-02-26T21:23:08.277Z,83.80
2023-02-26T21:26:16.758Z,84.15
2023-02-26T21:29:25.312Z,84.83
2023-02-26T21:32:34.232Z,85.08
2023-02-26T21:35:42.845Z,84.96
2023-02-26T21:38:52.446Z,84.08
2023-02-26T21:42:06.133Z,84.39
2023-02-26T21:45:14.611Z,84.23
2023-02-26T21:48:22.865Z,84.43
2023-02-26T21:51:31.293Z,84.64
2023-02-26T21:54:41.432Z,84.92
2023-02-26T21:57:50.036Z,84.09
2023-02-26T22:00:59.656Z,84.29
2023-02-26T22:04:08.443Z,84.48
2023-02-26T22:07:16.749Z,84.67
2023-02-26T22:10:26.616Z,85.01
2023-02-26T22:13:35.231Z,84.85
2023-02-26T22:16:43.783Z,84.99
2023-02-26T22:19:52.117Z,84.47
2023-02-26T22:23:00.751Z,84.71
2023-02-26T22:26:17.927Z,83.31
2023-02-26T22:29:26.280Z,83.44
2023-02-26T22:32:34.783Z,83.82
2023-02-26T22:35:44.253Z,83.32
2023-02-26T22:38:52.540Z,82.83
2023-02-26T22:42:02.120Z,83.29
2023-02-26T22:45:12.434Z,83.42
2023-02-26T22:48:21.025Z,83.50
2023-02-26T22:51:29.936Z,84.18
2023-02-26T22:54:39.030Z,83.55
2023-02-26T22:57:48.621Z,83.93
2023-02-26T23:01:01.802Z,84.03
2023-02-26T23:04:10.668Z,84.06
2023-02-26T23:07:19.453Z,83.82
2023-02-26T23:10:27.672Z,84.23
2023-02-26T23:13:38.097Z,84.24
2023-02-26T23:16:46.463Z,83.45
2023-02-26T23:19:55.151Z,83.94
2023-02-26T23:23:03.313Z,83.86
2023-02-26T23:26:11.841Z,83.38
2023-02-26T23:29:21.547Z,83.23
2023-02-26T23:32:29.683Z,83.03
2023-02-26T23:35:38.246Z,83.60
2023-02-26T23:38:46.470Z,82.47
2023-02-26T23:41:55.177Z,82.67
2023-02-26T23:45:05.370Z,82.64
2023-02-26T23:48:13.796Z,82.51
2023-02-26T23:51:22.045Z,82.40
2023-02-26T23:54:30.517Z,83.15
2023-02-26T23:57:39.158Z,82.79
